Archival Weather

Vermilion Rgnl

Danville, Illinois (KDNV)

Report from: Saturday, April 13, 2024 4:35 AM CDT
Current time: Sunday, July 14, 2024 5:30 AM CDT

Current weather – Weather history – Daily summaries
Weather forecast

Temperature7.7°C (45.9°F)
Wind chill5.4°C (41.7°F)
Dew point1.6°C (34.9°F)
Winds 7 kts (3.6 m/s, 8.1 mph) West-Northwest (290°)
Visibility10 mi. (16.1 km)
Clouds Sky clear
Altimeter30.10 in.Hg (1019 mB)
Relative humidity65 %
Density altitude-979 ft. (-298 m)
Remarks Fully automated report
Automated weather observing station with precipitation discriminator
Flight conditions Visual Meteorological Conditions
Raw dataKDNV 130935Z AUTO 29007KT 10SM CLR 08/02 A3010 RMK AO2 T00770016
An error has occurred. This application may no longer respond until reloaded. Reload 🗙